Great Notch, New Jersey
Current Conditions -  °F | °C
As of 3:53 PM on Friday 31 Oct 2014 (Local Time) from KCDW Reporting Station
Overcast Overcast  
Wind Chill: 52°   Ceiling: 4700
Heat Index: 52°   Visibility: 10mi
Dew Point: 34°   Wind: 7mph
Humidity: 50%   Direction: 70°ENE
Pressure: 29.9"   Gusts: NA
Location:  40.8835°N, 74.2057°W
Report Text: KCDW 311953Z AUTO 07006KT 10SM BKN047 OVC060 11/01 A2990 RMK AO2 SLP132 T01110011 TSNO
Loading
Personal Weather Stations






























Interactive Weather Map
Tropical Storm Tracking
New forecast layout! Learn more

10-Day Weather Forecast

Advertisements
Track Severe Weather on mobile